Time;durP1;ratioP1;P1;durP2;ratioP2;P2;SDS_P1;SDS_P2;PMS_P1;PMS_P2;Temp;Humidity;BMP_temperature;BMP_pressure;BME280_temperature;BME280_humidity;BME280_pressure;Samples;Min_cycle;Max_cycle;Signal;HPM_P1;HPM_P2
2022/04/07 00:00:13;;;;;;;1.30;1.02;;;12.30;62.80;;;8.39;81.12;94387.59;5052884;28;20032;-58
2022/04/07 00:02:39;;;;;;;1.30;0.90;;;12.20;63.20;;;8.37;81.74;94383.63;5051021;28;20025;-58
2022/04/07 00:05:08;;;;;;;1.05;0.80;;;12.10;63.40;;;8.28;81.93;94386.88;5051755;28;20514;-58
2022/04/07 00:07:34;;;;;;;0.73;0.70;;;12.10;64.20;;;8.20;82.38;94389.34;5052173;28;20650;-58
2022/04/07 00:10:06;;;;;;;0.80;0.80;;;12.00;64.60;;;8.21;82.98;94385.63;5043349;28;20061;-58
2022/04/07 00:12:42;;;;;;;1.27;0.90;;;12.00;64.90;;;8.18;83.22;94386.16;5051090;28;20476;-58
2022/04/07 00:15:11;;;;;;;0.90;0.80;;;11.90;65.10;;;8.14;83.51;94385.16;5051961;28;20115;-59
2022/04/07 00:17:40;;;;;;;1.52;1.10;;;11.90;65.30;;;8.17;84.25;94390.69;5051352;28;20422;-60
2022/04/07 00:20:07;;;;;;;2.13;1.70;;;11.90;65.40;;;8.15;84.58;94386.72;5047837;28;20690;-59
2022/04/07 00:22:35;;;;;;;5.05;1.92;;;11.90;65.30;;;8.10;85.03;94382.25;5051880;28;20475;-57
2022/04/07 00:25:08;;;;;;;3.40;1.85;;;11.90;65.40;;;8.12;85.38;94388.09;5052645;28;20032;-58
2022/04/07 00:27:34;;;;;;;2.53;2.10;;;11.90;65.60;;;8.05;85.87;94393.72;5041651;28;20056;-58
2022/04/07 00:30:00;;;;;;;2.97;2.08;;;11.80;65.70;;;8.05;86.24;94392.91;5052135;28;20032;-58
2022/04/07 00:32:31;;;;;;;2.88;2.17;;;11.80;65.90;;;7.99;86.41;94388.69;5051092;28;20140;-58
2022/04/07 00:34:57;;;;;;;4.05;2.22;;;11.80;66.20;;;7.94;86.96;94394.84;5033920;28;20108;-58
2022/04/07 00:37:24;;;;;;;2.90;2.22;;;11.80;66.50;;;7.85;87.14;94373.44;5050987;28;20108;-59
2022/04/07 00:39:56;;;;;;;7.00;2.47;;;11.80;66.60;;;7.85;87.50;94372.66;5049595;28;20554;-58
2022/04/07 00:42:27;;;;;;;3.53;2.22;;;11.80;67.40;;;7.79;87.35;94369.22;5051625;28;20041;-53
2022/04/07 00:45:07;;;;;;;2.45;1.70;;;11.70;67.40;;;7.76;87.09;94366.34;5044339;28;20041;-58
2022/04/07 00:47:33;;;;;;;3.15;1.98;;;11.70;67.70;;;7.78;87.10;94374.81;5051999;28;20107;-57
2022/04/07 00:50:02;;;;;;;2.65;1.42;;;11.60;67.60;;;7.74;87.36;94379.06;5050405;28;20446;-59
2022/04/07 00:52:32;;;;;;;2.58;1.55;;;11.70;68.60;;;7.72;87.46;94376.72;5037365;28;20047;-55
2022/04/07 00:54:59;;;;;;;2.85;1.73;;;11.60;68.60;;;7.76;87.59;94369.00;5033158;28;20120;-58
2022/04/07 00:57:31;;;;;;;3.42;1.90;;;11.60;68.40;;;7.69;87.65;94374.59;5030395;28;20107;-57
2022/04/07 00:59:59;;;;;;;3.00;1.92;;;11.50;68.60;;;7.69;87.95;94365.88;5031700;28;20555;-51
2022/04/07 01:02:25;;;;;;;2.75;1.83;;;11.60;68.90;;;7.58;87.49;94370.44;5010958;28;20425;-56
2022/04/07 01:04:54;;;;;;;2.00;1.50;;;11.60;69.20;;;7.54;87.20;94380.78;5031935;28;20037;-52
2022/04/07 01:07:26;;;;;;;1.80;1.58;;;11.50;69.30;;;7.53;87.51;94365.19;5014777;28;20104;-56
2022/04/07 01:09:59;;;;;;;1.98;1.70;;;11.50;69.50;;;7.54;87.49;94378.13;5028525;28;20116;-57
2022/04/07 01:12:31;;;;;;;;;;;11.50;69.60;;;7.52;87.50;94379.47;5031404;28;20025;-56
2022/04/07 01:15:05;;;;;;;3.55;1.90;;;11.40;69.20;;;7.51;87.48;94375.25;5029136;28;20287;-56
2022/04/07 01:17:35;;;;;;;2.33;1.70;;;11.40;70.00;;;7.50;87.50;94373.69;5032238;28;20267;-57
2022/04/07 01:20:07;;;;;;;3.08;1.70;;;11.40;69.20;;;7.44;87.25;94366.81;5027534;28;20026;-58
2022/04/07 01:22:39;;;;;;;1.73;1.63;;;11.40;69.50;;;7.44;87.32;94357.00;5028879;28;20091;-57
2022/04/07 01:25:06;;;;;;;1.70;1.25;;;11.30;69.30;;;7.42;86.95;94367.88;5030993;28;20384;-55
2022/04/07 01:27:38;;;;;;;3.95;1.50;;;11.30;69.60;;;7.40;86.96;94367.38;5021847;28;20103;-56
2022/04/07 01:30:07;;;;;;;2.03;1.60;;;11.40;69.80;;;7.41;86.99;94357.56;5032087;28;20091;-58
2022/04/07 01:32:56;;;;;;;3.28;1.60;;;11.30;69.70;;;7.35;86.30;94348.06;5029915;28;20387;-55
2022/04/07 01:35:25;;;;;;;6.95;1.25;;;11.30;69.70;;;7.30;86.19;94354.19;5030184;28;20400;-57
2022/04/07 01:37:53;;;;;;;2.78;1.45;;;11.20;69.80;;;7.30;86.77;94359.47;5027455;28;20033;-57
2022/04/07 01:40:28;;;;;;;2.22;1.10;;;11.20;69.90;;;7.28;86.02;94363.47;5014444;28;20437;-58
2022/04/07 01:42:54;;;;;;;0.88;0.88;;;11.20;69.90;;;7.26;86.07;94357.63;5031150;28;20396;-54
2022/04/07 01:45:23;;;;;;;2.63;1.08;;;11.20;69.80;;;7.25;86.64;94366.66;5019885;28;20033;-56
2022/04/07 01:47:54;;;;;;;1.10;0.90;;;11.10;70.10;;;7.25;87.10;94364.78;5030600;28;20471;-57
2022/04/07 01:50:25;;;;;;;3.45;1.40;;;11.10;70.20;;;7.25;87.30;94374.59;5029833;28;20030;-58
2022/04/07 01:53:01;;;;;;;1.20;1.02;;;11.10;70.30;;;7.20;87.64;94378.06;5023078;28;20032;-58
2022/04/07 01:55:32;;;;;;;2.60;1.38;;;11.00;70.30;;;7.16;87.76;94385.75;5030816;28;20053;-58
2022/04/07 01:58:02;;;;;;;2.08;1.63;;;11.00;70.30;;;7.15;88.11;94378.09;5026683;28;20071;-58
2022/04/07 02:00:31;;;;;;;4.60;1.90;;;11.00;70.60;;;7.15;88.31;94378.88;5014211;28;20111;-58
2022/04/07 02:02:56;;;;;;;3.63;1.95;;;11.00;70.70;;;7.14;88.23;94371.19;5026761;28;20099;-58
2022/04/07 02:05:25;;;;;;;3.38;2.42;;;11.00;70.90;;;7.18;88.44;94381.00;5001155;28;20485;-58
2022/04/07 02:08:00;;;;;;;3.97;2.17;;;11.00;70.80;;;7.17;88.42;94374.09;5019442;28;20140;-58
2022/04/07 02:10:30;;;;;;;3.17;2.15;;;11.00;70.90;;;7.15;88.49;94367.50;5012787;28;20507;-58
2022/04/07 02:12:56;;;;;;;5.35;2.17;;;11.00;70.80;;;7.17;88.57;94374.09;5018035;28;20092;-58
2022/04/07 02:15:26;;;;;;;2.45;1.98;;;11.00;70.90;;;7.19;88.70;94374.63;5033754;28;20029;-58
2022/04/07 02:18:01;;;;;;;3.13;1.95;;;11.00;70.90;;;7.17;88.60;94375.94;5014709;28;20103;-57
2022/04/07 02:20:33;;;;;;;2.65;2.22;;;11.00;71.00;;;7.19;88.80;94374.63;5001894;28;20080;-58
2022/04/07 02:22:59;;;;;;;1.73;1.58;;;11.00;71.10;;;7.17;88.65;94376.72;5035506;28;20040;-54
2022/04/07 02:25:31;;;;;;;1.30;1.20;;;11.00;71.20;;;7.15;88.25;94372.78;5035180;28;20030;-56
2022/04/07 02:27:57;;;;;;;1.75;1.15;;;11.00;71.30;;;7.17;87.46;94370.66;5028304;28;20488;-57
2022/04/07 02:30:22;;;;;;;1.27;1.13;;;11.00;71.10;;;7.18;86.85;94369.59;5035315;28;20095;-58
2022/04/07 02:32:48;;;;;;;1.05;0.85;;;11.00;71.10;;;7.19;86.78;94371.19;5023974;28;20038;-57
2022/04/07 02:35:20;;;;;;;1.88;1.10;;;11.00;71.20;;;7.24;86.77;94373.00;5013186;28;20026;-56
2022/04/07 02:37:45;;;;;;;1.00;0.68;;;11.00;71.10;;;7.23;86.39;94371.44;5027022;28;20029;-58
2022/04/07 02:40:14;;;;;;;1.33;0.80;;;11.00;71.10;;;7.21;86.05;94366.41;5035050;28;20030;-58
2022/04/07 02:42:45;;;;;;;1.20;0.90;;;11.00;71.10;;;7.20;85.54;94372.75;5035186;28;20032;-57
2022/04/07 02:45:11;;;;;;;0.60;0.60;;;11.00;71.00;;;7.18;84.72;94362.44;5023730;28;20039;-58
2022/04/07 02:47:38;;;;;;;0.98;0.80;;;11.00;70.90;;;7.13;83.57;94367.75;5036960;28;20028;-56
2022/04/07 02:50:05;;;;;;;1.85;0.60;;;10.90;70.80;;;7.19;83.73;94373.81;5045499;28;20030;-58
2022/04/07 02:52:32;;;;;;;0.63;0.60;;;10.90;70.90;;;7.19;83.43;94368.53;5036960;28;20460;-56
2022/04/07 02:55:06;;;;;;;1.10;0.57;;;10.90;70.90;;;7.18;82.78;94364.31;5054895;28;20033;-57
2022/04/07 02:57:35;;;;;;;4.43;0.65;;;10.90;70.90;;;7.17;82.30;94358.19;5049522;28;20033;-58
2022/04/07 03:00:06;;;;;;;0.85;0.47;;;10.80;70.60;;;7.18;82.87;94362.44;5051954;28;20024;-57
2022/04/07 03:02:32;;;;;;;0.50;0.40;;;10.80;70.50;;;7.09;82.12;94340.25;5048321;28;20037;-56
2022/04/07 03:05:03;;;;;;;0.68;0.60;;;10.70;70.30;;;6.99;81.64;94335.00;5054500;28;20032;-58
2022/04/07 03:07:29;;;;;;;0.60;0.40;;;10.60;70.30;;;6.98;82.00;94345.84;5054665;28;20410;-57
2022/04/07 03:10:04;;;;;;;1.40;0.52;;;10.50;70.20;;;6.93;81.85;94346.69;5053973;28;20119;-54
2022/04/07 03:12:37;;;;;;;0.40;0.40;;;10.50;70.40;;;6.92;81.27;94348.50;5054560;28;20036;-56
2022/04/07 03:15:07;;;;;;;1.13;0.60;;;10.50;70.40;;;6.93;81.75;94347.47;5053999;28;20055;-54
2022/04/07 03:17:33;;;;;;;0.70;0.60;;;10.40;70.40;;;6.94;81.29;94350.91;5053063;28;20106;-56
2022/04/07 03:20:00;;;;;;;0.50;0.50;;;10.40;70.40;;;6.94;81.98;94338.44;5050161;28;20101;-55
2022/04/07 03:22:25;;;;;;;1.00;0.70;;;10.40;70.30;;;6.90;80.81;94341.94;5030036;28;20021;-56
2022/04/07 03:24:54;;;;;;;0.68;0.50;;;10.40;70.10;;;6.92;80.93;94347.72;5053183;28;20376;-53
2022/04/07 03:27:20;;;;;;;1.08;0.50;;;10.40;70.10;;;6.93;80.18;94341.38;5053542;28;20029;-56
2022/04/07 03:29:46;;;;;;;0.95;0.60;;;10.40;69.90;;;6.91;79.47;94325.75;5054062;28;20033;-56
2022/04/07 03:32:12;;;;;;;0.55;0.50;;;10.40;69.80;;;6.97;80.04;94331.03;5049380;28;20036;-57
2022/04/07 03:34:38;;;;;;;0.88;0.50;;;10.40;69.70;;;6.95;79.72;94329.44;5054100;28;20028;-57
2022/04/07 03:37:08;;;;;;;0.80;0.52;;;10.40;69.60;;;6.93;78.34;94314.91;5054284;28;20071;-52
2022/04/07 03:39:34;;;;;;;0.47;0.47;;;10.40;69.50;;;6.97;79.02;94315.94;5052289;28;20384;-57
2022/04/07 03:42:03;;;;;;;1.58;0.70;;;10.40;69.30;;;6.91;78.17;94312.53;5053914;28;20060;-57
2022/04/07 03:44:41;;;;;;;0.57;0.40;;;10.40;69.20;;;6.89;78.40;94314.66;5046373;28;20040;-57
2022/04/07 03:47:07;;;;;;;1.02;0.40;;;10.30;69.10;;;6.88;77.41;94297.19;5050412;28;20033;-58
2022/04/07 03:49:32;;;;;;;0.90;0.40;;;10.30;69.10;;;6.98;76.54;94309.56;5053331;28;20055;-53
2022/04/07 03:52:01;;;;;;;0.95;0.32;;;10.30;68.60;;;7.03;76.43;94306.91;5053222;28;20095;-54
2022/04/07 03:54:35;;;;;;;0.70;0.35;;;10.40;68.60;;;7.08;75.93;94308.72;5053857;28;20036;-55
2022/04/07 03:57:02;;;;;;;0.22;0.22;;;10.40;68.40;;;7.01;75.78;94295.78;5052784;28;20025;-54
2022/04/07 03:59:33;;;;;;;0.30;0.30;;;10.40;68.20;;;7.12;75.37;94294.69;5048253;28;20384;-55
2022/04/07 04:02:02;;;;;;;0.30;0.30;;;10.40;67.90;;;7.13;75.18;94290.19;5066199;28;20567;-53
2022/04/07 04:04:31;;;;;;;0.40;0.40;;;10.40;67.70;;;7.12;74.77;94296.53;5046719;28;20029;-54
2022/04/07 04:07:03;;;;;;;0.32;0.30;;;10.40;67.60;;;7.09;74.30;94287.28;5042155;28;20082;-55
2022/04/07 04:09:32;;;;;;;0.68;0.50;;;10.40;67.30;;;7.14;74.04;94294.41;5054682;28;20039;-53
2022/04/07 04:11:58;;;;;;;0.40;0.40;;;10.40;67.70;;;7.11;74.23;94285.16;5053293;28;20041;-57
2022/04/07 04:14:27;;;;;;;0.30;0.30;;;10.40;67.00;;;7.16;73.55;94298.34;5045651;28;20036;-54
2022/04/07 04:16:59;;;;;;;1.80;0.40;;;10.40;66.90;;;7.18;74.17;94290.94;5053178;28;20031;-53
2022/04/07 04:19:25;;;;;;;1.05;0.30;;;10.40;67.60;;;7.19;73.20;94281.13;5053102;28;20040;-52
2022/04/07 04:21:53;;;;;;;0.30;0.30;;;10.40;66.60;;;7.19;73.13;94273.97;5040362;28;20237;-57
2022/04/07 04:24:22;;;;;;;0.77;0.43;;;10.40;66.40;;;7.29;73.00;94288.22;5034606;28;20033;-55
2022/04/07 04:26:54;;;;;;;0.50;0.40;;;10.50;66.30;;;7.29;73.23;94272.31;5043411;28;20515;-54
2022/04/07 04:29:22;;;;;;;1.08;0.30;;;10.50;66.20;;;7.26;72.62;94264.94;5048997;28;20040;-57
2022/04/07 04:31:48;;;;;;;1.20;0.38;;;10.50;65.90;;;7.29;72.66;94264.38;5068292;28;20111;-57
2022/04/07 04:34:17;;;;;;;0.38;0.38;;;10.50;65.80;;;7.27;73.27;94269.16;5049848;28;20108;-55
2022/04/07 04:36:43;;;;;;;0.50;0.50;;;10.50;65.80;;;7.21;72.96;94270.25;5072643;28;20104;-54
2022/04/07 04:39:12;;;;;;;0.30;0.30;;;10.40;65.60;;;7.15;72.86;94267.66;5052636;28;20078;-52
2022/04/07 04:41:38;;;;;;;0.25;0.25;;;10.40;65.50;;;7.15;72.39;94262.34;5031556;28;20025;-55
2022/04/07 04:44:06;;;;;;;4.95;0.40;;;10.30;65.50;;;7.15;72.41;94264.22;5029541;28;20030;-57
2022/04/07 04:46:32;;;;;;;0.30;0.30;;;10.40;65.40;;;7.15;72.60;94269.50;5007142;28;20029;-56
2022/04/07 04:48:58;;;;;;;3.10;0.50;;;10.40;65.30;;;7.22;72.56;94270.00;5051203;28;20029;-53
2022/04/07 04:51:27;;;;;;;0.40;0.30;;;10.40;65.30;;;7.30;72.02;94271.25;5018907;28;20050;-53
2022/04/07 04:54:00;;;;;;;0.43;0.40;;;10.40;65.20;;;7.39;71.48;94277.53;5031719;28;20033;-52
2022/04/07 04:56:28;;;;;;;0.75;0.20;;;10.50;65.10;;;7.47;70.66;94270.88;5026404;28;20026;-53
2022/04/07 04:58:57;;;;;;;0.50;0.30;;;10.60;64.80;;;7.59;70.07;94261.50;5032738;28;20108;-55
2022/04/07 05:01:26;;;;;;;0.30;0.30;;;10.70;64.30;;;7.69;69.58;94254.56;5008895;28;20428;-54
2022/04/07 05:03:52;;;;;;;0.70;0.30;;;10.80;63.90;;;7.75;70.03;94261.38;5020144;28;20045;-54
2022/04/07 05:06:23;;;;;;;0.30;0.25;;;10.90;63.80;;;7.74;69.36;94263.25;5032411;28;20075;-53
2022/04/07 05:08:52;;;;;;;0.40;0.30;;;10.90;63.60;;;7.76;69.61;94255.78;5029848;28;20033;-51
2022/04/07 05:11:26;;;;;;;0.22;0.20;;;11.10;63.00;;;7.82;69.82;94257.34;5030987;28;20365;-50
2022/04/07 05:13:52;;;;;;;1.77;0.40;;;11.10;62.70;;;7.85;69.67;94261.28;5031276;28;20095;-55
2022/04/07 05:16:18;;;;;;;0.68;0.50;;;11.20;62.60;;;7.86;69.40;94257.56;5032209;28;20029;-52
2022/04/07 05:18:47;;;;;;;0.35;0.30;;;11.20;62.50;;;7.89;69.25;94259.66;5032438;28;20172;-53
2022/04/07 05:21:16;;;;;;;1.77;0.47;;;11.20;62.10;;;7.92;69.86;94271.56;5028087;28;20112;-52
2022/04/07 05:23:45;;;;;;;0.38;0.38;;;11.30;62.30;;;7.90;70.11;94261.25;5008717;28;20029;-56
2022/04/07 05:26:14;;;;;;;0.40;0.40;;;11.40;62.20;;;7.86;69.95;94257.56;5009407;28;20385;-55
2022/04/07 05:28:41;;;;;;;0.77;0.35;;;11.40;62.10;;;7.87;69.81;94253.88;5006992;28;20073;-51
2022/04/07 05:31:06;;;;;;;0.50;0.40;;;11.40;61.80;;;7.86;70.58;94249.59;5029153;28;20124;-50
2022/04/07 05:33:33;;;;;;;0.55;0.50;;;11.40;61.80;;;7.76;70.28;94237.25;5026566;28;20536;-52
2022/04/07 05:36:08;;;;;;;0.68;0.35;;;11.40;61.70;;;7.72;70.74;94236.22;5031616;28;20032;-56
2022/04/07 05:38:33;;;;;;;0.85;0.38;;;11.40;61.60;;;7.74;70.24;94233.28;5012544;28;20044;-52
2022/04/07 05:40:59;;;;;;;2.35;0.47;;;11.40;61.50;;;7.77;70.19;94240.69;5028038;28;20033;-54
2022/04/07 05:43:28;;;;;;;0.40;0.40;;;11.40;61.50;;;7.85;69.72;94235.56;5034089;28;20057;-55
2022/04/07 05:46:03;;;;;;;8.80;0.65;;;11.50;61.40;;;7.91;69.81;94244.28;5002079;28;20084;-54
2022/04/07 05:48:39;;;;;;;0.93;0.45;;;11.60;61.20;;;7.98;69.39;94243.94;5030644;28;20112;-50
2022/04/07 05:51:04;;;;;;;1.25;0.50;;;11.60;60.90;;;8.01;68.79;94238.84;5029827;28;20048;-55
2022/04/07 05:53:30;;;;;;;0.60;0.45;;;11.70;60.80;;;8.06;68.46;94228.22;5033244;28;20112;-56
2022/04/07 05:55:59;;;;;;;0.82;0.60;;;11.80;60.50;;;8.10;68.06;94233.75;5015414;28;20044;-50
2022/04/07 05:58:26;;;;;;;1.83;0.30;;;11.80;60.20;;;8.06;67.88;94227.44;5013510;28;20025;-54
2022/04/07 06:00:52;;;;;;;3.78;0.65;;;11.80;60.00;;;8.04;67.06;94227.69;5017533;28;20029;-52
2022/04/07 06:03:18;;;;;;;0.93;0.45;;;11.80;59.60;;;8.13;66.68;94219.91;5017190;28;20036;-51
2022/04/07 06:05:44;;;;;;;0.65;0.40;;;11.90;60.00;;;8.20;66.91;94215.06;5014828;28;20029;-53
2022/04/07 06:08:12;;;;;;;1.38;0.40;;;12.00;59.10;;;8.29;66.40;94217.88;5017757;28;20036;-51
2022/04/07 06:10:38;;;;;;;0.80;0.30;;;12.10;58.70;;;8.45;65.18;94229.94;5031304;28;20028;-53
2022/04/07 06:13:09;;;;;;;0.30;0.30;;;12.30;58.30;;;8.56;64.00;94218.13;5035836;28;20018;-54
2022/04/07 06:15:39;;;;;;;0.70;0.30;;;12.50;57.80;;;8.67;63.44;94200.19;5033762;28;20029;-52
2022/04/07 06:18:08;;;;;;;1.85;0.52;;;12.60;56.60;;;8.78;62.99;94219.44;5035596;28;20028;-50
2022/04/07 06:20:34;;;;;;;2.15;0.30;;;12.70;56.30;;;9.07;62.22;94216.66;5034248;28;20024;-53
2022/04/07 06:23:00;;;;;;;0.40;0.30;;;12.90;56.00;;;9.27;60.96;94194.28;4984758;28;20029;-54
2022/04/07 06:25:31;;;;;;;0.30;0.30;;;13.10;55.50;;;9.39;60.59;94205.25;5035428;28;20084;-52
2022/04/07 06:27:59;;;;;;;1.98;0.50;;;13.30;54.50;;;9.66;60.08;94214.41;5034608;28;20034;-56
2022/04/07 06:30:30;;;;;;;0.98;0.40;;;13.50;54.10;;;10.04;58.94;94223.06;5035421;28;20076;-53
2022/04/07 06:32:59;;;;;;;0.63;0.40;;;13.90;53.90;;;10.33;57.65;94208.72;5007789;28;20029;-53
2022/04/07 06:35:25;;;;;;;0.40;0.40;;;14.40;52.90;;;10.48;56.57;94200.44;5017200;28;20500;-50
2022/04/07 06:37:56;;;;;;;0.50;0.30;;;14.90;51.60;;;10.66;56.58;94196.09;5034258;28;20316;-51
2022/04/07 06:40:23;;;;;;;0.30;0.30;;;15.40;50.80;;;10.54;56.14;94204.56;5002631;28;20034;-52
2022/04/07 06:43:15;;;;;;;0.80;0.38;;;15.50;49.70;;;10.30;57.10;94201.31;5033932;28;20389;-51
2022/04/07 06:45:47;;;;;;;0.30;0.30;;;15.60;48.90;;;10.11;56.93;94186.22;5023910;28;20045;-53
2022/04/07 06:48:13;;;;;;;0.52;0.40;;;15.60;48.50;;;10.19;57.81;94195.41;5033973;28;20034;-53
2022/04/07 06:50:39;;;;;;;0.82;0.63;;;15.60;48.20;;;10.16;57.50;94177.34;5034957;28;20510;-49
2022/04/07 06:53:05;;;;;;;0.40;0.30;;;15.60;48.40;;;10.11;57.07;94161.47;5040825;28;20033;-49
2022/04/07 06:55:31;;;;;;;3.95;0.40;;;15.40;48.10;;;10.18;57.13;94159.19;5059743;28;20491;-49
2022/04/07 06:58:02;;;;;;;0.85;0.40;;;15.30;48.00;;;10.39;56.92;94149.75;5051099;28;20029;-50
2022/04/07 07:00:34;;;;;;;1.13;0.52;;;15.20;48.20;;;10.79;54.55;94155.31;5036916;28;20029;-50
2022/04/07 07:03:03;;;;;;;0.77;0.47;;;15.50;47.60;;;11.44;54.35;94132.75;5044886;28;20033;-47
2022/04/07 07:05:38;;;;;;;3.08;0.70;;;15.90;47.50;;;11.89;51.66;94140.72;5054668;28;20091;-49
2022/04/07 07:08:20;;;;;;;0.95;0.52;;;16.50;46.30;;;12.16;48.76;94152.25;5052964;28;20449;-48
2022/04/07 07:10:48;;;;;;;1.98;0.55;;;17.10;44.20;;;12.19;47.96;94116.94;5050080;28;20041;-50
2022/04/07 07:13:20;;;;;;;0.45;0.43;;;17.70;43.30;;;12.49;48.43;94137.44;5053358;28;20036;-47
2022/04/07 07:15:47;;;;;;;3.40;0.60;;;18.30;42.00;;;12.88;46.56;94129.63;5035894;28;20470;-47
2022/04/07 07:18:13;;;;;;;1.05;0.57;;;19.00;39.90;;;12.87;46.62;94123.50;5054493;28;20057;-46
2022/04/07 07:20:39;;;;;;;0.50;0.50;;;19.30;39.10;;;12.74;47.76;94135.13;5053683;28;20068;-47
2022/04/07 07:23:07;;;;;;;1.02;0.60;;;19.50;38.30;;;12.46;46.74;94126.59;5032476;28;20033;-47
2022/04/07 07:25:36;;;;;;;2.10;0.80;;;19.50;36.90;;;13.06;47.19;94109.03;5045011;28;20071;-47
2022/04/07 07:28:09;;;;;;;3.35;0.90;;;19.80;36.90;;;13.87;45.45;94114.41;5041809;28;20115;-51
2022/04/07 07:30:34;;;;;;;;;;;20.60;36.70;;;13.76;44.93;94112.44;5054666;28;20032;-50
2022/04/07 07:33:01;;;;;;;0.68;0.50;;;20.80;35.60;;;13.50;45.01;94102.56;5031710;28;19913;-47
2022/04/07 07:35:27;;;;;;;0.52;0.47;;;21.00;34.40;;;13.70;44.61;94114.50;5050063;28;20391;-48
2022/04/07 07:37:55;;;;;;;1.08;0.60;;;21.20;33.90;;;13.66;45.68;94110.84;5052503;28;20387;-51
2022/04/07 07:40:24;;;;;;;0.57;0.57;;;21.50;33.80;;;13.98;43.93;94104.16;5035962;28;20029;-47
2022/04/07 07:42:57;;;;;;;0.50;0.50;;;21.80;33.30;;;14.35;43.94;94101.75;5052890;28;20515;-53
2022/04/07 07:45:31;;;;;;;3.03;0.50;;;22.00;33.20;;;14.55;43.28;94110.97;5042383;28;20039;-48
2022/04/07 07:48:00;;;;;;;0.45;0.35;;;22.20;32.90;;;14.16;43.28;94096.03;5054007;28;20033;-49
2022/04/07 07:50:29;;;;;;;0.60;0.60;;;22.10;31.90;;;14.07;44.29;94090.72;5036540;28;20061;-46
2022/04/07 07:52:54;;;;;;;0.70;0.52;;;22.10;32.00;;;13.44;45.07;94077.09;5053753;28;20594;-49
2022/04/07 07:55:23;;;;;;;0.75;0.55;;;21.70;32.00;;;13.39;46.43;94094.09;5053795;28;20037;-49
2022/04/07 07:57:52;;;;;;;0.73;0.60;;;21.30;32.70;;;13.47;46.95;94105.88;5040877;28;20025;-47
2022/04/07 08:00:24;;;;;;;1.40;0.50;;;21.00;33.30;;;13.25;46.10;94095.38;5067722;28;20029;-48
2022/04/07 08:02:56;;;;;;;0.77;0.47;;;20.80;33.60;;;13.22;47.03;94094.09;5055623;28;20082;-48
2022/04/07 08:05:28;;;;;;;1.02;0.50;;;20.80;34.00;;;13.38;47.43;94095.22;5039836;28;20044;-47
2022/04/07 08:07:53;;;;;;;0.50;0.50;;;20.90;33.80;;;13.59;46.01;94103.31;5034473;28;20024;-47
2022/04/07 08:10:22;;;;;;;1.08;0.60;;;20.90;33.90;;;13.72;45.95;94092.75;5023583;28;20395;-50
2022/04/07 08:13:00;;;;;;;0.45;0.45;;;21.10;33.80;;;13.39;45.83;94071.91;5035507;28;20156;-47
2022/04/07 08:15:27;;;;;;;0.70;0.70;;;21.20;33.00;;;13.84;46.61;94101.66;5046815;28;20036;-48
2022/04/07 08:17:53;;;;;;;1.85;0.80;;;21.30;33.40;;;14.09;46.51;94094.63;5051295;28;20163;-48
2022/04/07 08:20:19;;;;;;;1.45;0.70;;;21.60;33.40;;;14.39;46.37;94116.09;5050765;28;20116;-49
2022/04/07 08:22:45;;;;;;;0.60;0.60;;;22.00;33.40;;;14.69;46.77;94106.16;5053149;28;20390;-49
2022/04/07 08:25:11;;;;;;;0.95;0.80;;;22.50;33.60;;;15.01;48.55;94107.34;5051746;28;20036;-50
2022/04/07 08:27:37;;;;;;;2.58;0.90;;;23.00;33.50;;;15.59;45.64;94106.66;5051816;28;20036;-55
2022/04/07 08:30:04;;;;;;;1.15;0.80;;;24.00;32.70;;;15.65;45.73;94116.84;5051889;28;20114;-48
2022/04/07 08:32:35;;;;;;;5.00;0.70;;;24.80;31.60;;;15.63;47.07;94120.97;5057535;28;20058;-49
2022/04/07 08:35:10;;;;;;;2.55;0.60;;;25.00;30.90;;;15.08;46.52;94120.22;5051368;28;20074;-51
2022/04/07 08:37:38;;;;;;;2.80;0.70;;;25.00;30.00;;;14.67;48.61;94113.75;5056000;28;20033;-53
2022/04/07 08:40:07;;;;;;;1.15;0.70;;;24.80;30.00;;;14.79;47.95;94118.38;5051750;28;20491;-54
2022/04/07 08:42:34;;;;;;;0.65;0.60;;;24.70;30.40;;;14.49;47.21;94101.53;5053795;28;20492;-49
2022/04/07 08:45:00;;;;;;;0.80;0.60;;;24.30;30.50;;;14.24;49.30;94085.28;5049072;28;20032;-52
2022/04/07 08:47:33;;;;;;;1.00;0.63;;;23.70;31.10;;;13.98;49.81;94095.34;5054066;28;20071;-53
2022/04/07 08:50:03;;;;;;;0.73;0.68;;;23.10;32.00;;;14.05;49.19;94088.38;5032635;28;20106;-48
2022/04/07 08:52:29;;;;;;;0.50;0.50;;;22.60;32.80;;;13.80;48.92;94094.63;5050809;28;20037;-49
2022/04/07 08:54:58;;;;;;;0.40;0.40;;;22.20;33.50;;;13.26;50.73;94100.41;5050157;28;20075;-50
2022/04/07 08:57:27;;;;;;;1.73;0.50;;;21.60;34.00;;;13.09;51.54;94100.41;5047695;28;20095;-50
2022/04/07 08:59:53;;;;;;;1.88;0.57;;;21.00;35.40;;;12.96;52.24;94108.25;5058875;28;20021;-50
2022/04/07 09:02:22;;;;;;;3.20;0.50;;;20.50;35.70;;;12.86;51.89;94073.06;5052088;28;20486;-52
2022/04/07 09:04:50;;;;;;;1.10;0.40;;;20.10;36.60;;;12.44;53.67;94104.75;5017682;28;20438;-50
2022/04/07 09:07:16;;;;;;;1.05;0.50;;;19.70;37.40;;;12.36;53.99;94094.84;5051676;28;20492;-50
2022/04/07 09:09:42;;;;;;;3.03;0.50;;;19.30;38.20;;;12.22;52.58;94084.28;5051815;28;20060;-47
2022/04/07 09:12:08;;;;;;;1.73;0.40;;;19.00;38.70;;;11.95;53.37;94098.66;5051650;28;20047;-48
2022/04/07 09:14:37;;;;;;;0.50;0.50;;;18.60;39.10;;;12.09;54.24;94082.53;5051711;28;20025;-49
2022/04/07 09:17:08;;;;;;;0.38;0.38;;;18.50;39.60;;;12.11;53.36;94091.03;5050512;28;20075;-48
2022/04/07 09:19:41;;;;;;;0.40;0.40;;;18.40;39.90;;;12.06;54.23;94093.81;5052533;28;20112;-48
2022/04/07 09:22:14;;;;;;;2.72;0.60;;;18.40;40.10;;;11.95;54.02;94082.66;5052167;28;20029;-52
2022/04/07 09:24:45;;;;;;;;;;;18.40;40.30;;;11.88;54.47;94080.44;5052963;28;20399;-47
2022/04/07 09:27:12;;;;;;;0.50;0.50;;;18.20;40.50;;;11.99;55.42;94064.94;5052439;28;19912;-46
2022/04/07 09:29:46;;;;;;;2.10;0.50;;;18.10;40.80;;;11.95;54.27;94056.75;5054117;28;20114;-50
2022/04/07 09:32:27;;;;;;;1.00;0.32;;;18.00;41.20;;;11.78;54.37;94073.47;5070878;28;20483;-50
2022/04/07 09:34:58;;;;;;;1.05;0.40;;;17.90;41.20;;;11.88;55.01;94055.66;5064476;28;20033;-51
2022/04/07 09:37:27;;;;;;;1.25;0.30;;;17.90;41.60;;;11.85;54.91;94059.72;5050237;28;20021;-47
2022/04/07 09:40:16;;;;;;;0.40;0.30;;;17.70;41.70;;;11.67;55.24;94029.50;5050695;28;20069;-50
2022/04/07 09:42:42;;;;;;;0.65;0.30;;;17.60;42.10;;;11.56;56.64;94050.31;5037584;28;20037;-51
2022/04/07 09:45:12;;;;;;;0.60;0.30;;;17.40;42.70;;;11.60;56.63;94047.03;5046125;28;20365;-47
2022/04/07 09:47:52;;;;;;;0.80;0.20;;;17.30;43.30;;;11.59;56.19;94051.56;5051469;28;20025;-48
2022/04/07 09:50:24;;;;;;;0.30;0.30;;;17.20;43.50;;;11.70;55.39;94054.75;5050574;28;20025;-50
2022/04/07 09:53:03;;;;;;;1.55;0.40;;;17.30;43.30;;;11.64;55.21;94034.66;5052182;28;20037;-47
2022/04/07 09:55:42;;;;;;;0.20;0.20;;;17.30;42.90;;;11.60;55.11;94052.38;5014469;28;20033;-48
2022/04/07 09:58:10;;;;;;;0.75;0.50;;;17.30;42.80;;;11.61;54.99;94044.06;5040661;28;20064;-48
2022/04/07 10:00:37;;;;;;;0.63;0.45;;;17.30;42.80;;;11.68;55.16;94012.38;5046196;28;20025;-49
2022/04/07 10:03:04;;;;;;;0.88;0.50;;;17.40;42.70;;;11.72;54.55;94037.38;5051763;28;20029;-50
2022/04/07 10:05:31;;;;;;;0.63;0.40;;;17.60;42.30;;;11.80;54.71;94027.81;5058397;28;20036;-48
2022/04/07 10:07:58;;;;;;;0.38;0.38;;;17.80;42.40;;;11.97;54.45;94029.75;5056909;28;20129;-47
2022/04/07 10:10:24;;;;;;;0.40;0.40;;;17.80;42.90;;;11.95;53.82;94021.28;5049127;28;20044;-47
2022/04/07 10:13:09;;;;;;;1.58;0.40;;;17.80;42.50;;;11.91;53.28;94021.13;5051897;28;20503;-47
2022/04/07 10:15:39;;;;;;;0.75;0.60;;;17.90;41.90;;;12.03;54.28;94017.84;5050651;28;20048;-49
2022/04/07 10:18:09;;;;;;;1.90;0.70;;;17.80;41.60;;;12.09;53.92;94021.94;5050806;28;20027;-52
2022/04/07 10:20:44;;;;;;;0.20;0.20;;;17.90;41.80;;;12.02;53.33;94014.38;5050170;28;20480;-47
2022/04/07 10:23:54;;;;;;;0.30;0.30;;;17.90;41.40;;;11.98;53.25;93999.31;5030486;28;20036;-48
2022/04/07 10:26:25;;;;;;;0.82;0.40;;;17.90;41.30;;;12.02;53.26;94013.59;5051607;28;20040;-51
2022/04/07 10:28:57;;;;;;;4.25;0.40;;;17.90;41.30;;;12.04;52.77;94014.09;5055613;28;20036;-47
2022/04/07 10:31:30;;;;;;;0.77;0.50;;;17.90;41.20;;;12.22;52.85;94010.34;5054426;28;20035;-49
2022/04/07 10:34:30;;;;;;;0.52;0.50;;;17.80;41.50;;;12.09;52.69;93994.47;5054250;28;20059;-49